Time;durP1;ratioP1;P1;durP2;ratioP2;P2;SDS_P1;SDS_P2;PMS_P1;PMS_P2;Temp;Humidity;BMP_temperature;BMP_pressure;BME280_temperature;BME280_humidity;BME280_pressure;Samples;Min_cycle;Max_cycle;Signal;HPM_P1;HPM_P2
2021/08/11 00:01:52;;;;;;;11.70;7.47;;;;;;;28.58;37.17;99328.09;5110446;28;20468;-70
2021/08/11 00:04:18;;;;;;;14.00;7.82;;;;;;;28.38;37.59;99334.94;5104827;28;20043;-75
2021/08/11 00:06:43;;;;;;;10.80;8.90;;;;;;;28.48;37.50;99332.16;5109087;28;20037;-74
2021/08/11 00:09:08;;;;;;;10.48;7.32;;;;;;;28.54;37.40;99336.06;5114169;28;20019;-75
2021/08/11 00:11:35;;;;;;;8.40;7.53;;;;;;;28.36;37.66;99337.47;5109140;28;20047;-75
2021/08/11 00:14:00;;;;;;;11.52;7.95;;;;;;;28.21;38.04;99336.31;5104699;28;20085;-75
2021/08/11 00:16:26;;;;;;;21.25;8.07;;;;;;;28.30;37.86;99336.44;5110565;28;20122;-70
2021/08/11 00:18:52;;;;;;;13.85;7.70;;;;;;;28.10;38.46;99328.81;5110335;28;20035;-73
2021/08/11 00:21:17;;;;;;;10.75;7.47;;;;;;;28.11;38.61;99332.50;5109161;28;20024;-70
2021/08/11 00:23:43;;;;;;;14.57;7.95;;;;;;;27.94;38.69;99328.94;5097928;28;20055;-71
2021/08/11 00:26:08;;;;;;;11.85;7.65;;;;;;;27.87;38.88;99327.91;5110235;28;20409;-75
2021/08/11 00:28:34;;;;;;;11.77;7.97;;;;;;;27.79;39.36;99317.91;5110307;28;20057;-75
2021/08/11 00:30:59;;;;;;;9.93;7.20;;;;;;;27.84;39.04;99320.19;5143591;27;20028;-70
2021/08/11 00:33:25;;;;;;;17.20;7.82;;;;;;;27.88;39.29;99328.69;5100269;28;20477;-75
2021/08/11 00:35:50;;;;;;;11.13;8.07;;;;;;;28.08;38.44;99322.72;5110531;28;20032;-74
2021/08/11 00:38:16;;;;;;;13.60;7.95;;;;;;;28.20;38.32;99326.91;5110040;28;20073;-70
2021/08/11 00:40:41;;;;;;;11.13;7.63;;;;;;;28.13;38.08;99327.09;5108184;28;20103;-70
2021/08/11 00:43:10;;;;;;;9.43;8.00;;;;;;;27.91;38.78;99321.25;5106823;28;20046;-74
2021/08/11 00:45:37;;;;;;;15.40;7.55;;;;;;;27.97;38.83;99325.97;5114191;28;20462;-75
2021/08/11 00:48:03;;;;;;;9.25;7.75;;;;;;;28.03;38.50;99326.19;5110579;28;20031;-75
2021/08/11 00:50:30;;;;;;;8.15;7.35;;;;;;;27.72;39.23;99321.78;5108613;28;20032;-75
2021/08/11 00:52:55;;;;;;;10.68;8.48;;;;;;;27.59;39.51;99310.28;5143318;27;20131;-75
2021/08/11 00:55:23;;;;;;;14.88;8.30;;;;;;;27.31;40.21;99320.50;5110034;28;20389;-70
2021/08/11 00:57:50;;;;;;;11.82;7.90;;;;;;;27.76;38.81;99318.81;5110036;28;20074;-75
2021/08/11 01:00:19;;;;;;;11.88;8.05;;;;;;;27.67;39.02;99318.69;5104963;28;20107;-70
2021/08/11 01:02:50;;;;;;;12.37;7.93;;;;;;;27.49;39.27;99325.72;5109903;28;20043;-75
2021/08/11 01:05:18;;;;;;;13.98;8.13;;;;;;;27.47;39.66;99319.63;5114514;27;20036;-74
2021/08/11 01:07:44;;;;;;;11.52;8.35;;;;;;;27.60;39.25;99320.50;5113564;27;20047;-75
2021/08/11 01:10:10;;;;;;;11.48;7.90;;;;;;;27.52;39.16;99313.34;5106544;28;20103;-71
2021/08/11 01:12:36;;;;;;;10.98;7.97;;;;;;;27.66;39.03;99328.56;5113672;28;20037;-70
2021/08/11 01:15:03;;;;;;;9.70;7.25;;;;;;;27.52;38.92;99319.09;5113546;28;20489;-70
2021/08/11 01:17:29;;;;;;;10.20;7.82;;;;;;;27.39;39.33;99327.66;5109116;28;20027;-70
2021/08/11 01:19:56;;;;;;;10.48;7.85;;;;;;;27.08;40.12;99324.47;5109916;28;20482;-74
2021/08/11 01:22:39;;;;;;;12.82;8.40;;;;;;;27.15;40.36;99316.44;5113140;27;20032;-70
2021/08/11 01:25:12;;;;;;;9.82;8.40;;;;;;;27.09;40.25;99315.41;5113343;27;20027;-70
2021/08/11 01:27:37;;;;;;;11.18;8.00;;;;;;;27.15;40.31;99315.63;5107034;28;20028;-70
2021/08/11 01:30:14;;;;;;;23.70;8.52;;;;;;;27.11;39.84;99318.63;5113205;28;20107;-75
2021/08/11 01:32:54;;;;;;;8.55;7.60;;;;;;;27.13;39.86;99316.09;5111877;28;20039;-70
2021/08/11 01:35:24;;;;;;;12.65;8.40;;;;;;;26.88;40.51;99314.75;5108525;28;20026;-74
2021/08/11 01:37:55;;;;;;;;;;;;;;;26.71;40.83;99319.66;5113123;28;20126;-70
2021/08/11 01:40:28;;;;;;;13.45;9.15;;;;;;;26.54;41.27;99324.59;5112985;28;20296;-70
2021/08/11 01:42:54;;;;;;;12.90;8.15;;;;;;;26.57;41.14;99322.91;5111575;28;20047;-71
2021/08/11 01:45:50;;;;;;;15.07;8.70;;;;;;;26.41;41.38;99324.50;5139510;27;20024;-70
2021/08/11 01:48:21;;;;;;;9.27;8.00;;;;;;;26.54;41.21;99316.00;5106385;27;20043;-70
2021/08/11 01:50:48;;;;;;;21.63;8.93;;;;;;;26.69;40.70;99327.91;5114440;27;20027;-70
2021/08/11 01:53:18;;;;;;;16.45;9.32;;;;;;;26.51;41.22;99330.44;5113457;27;20055;-70
2021/08/11 01:55:47;;;;;;;14.10;8.98;;;;;;;26.54;40.68;99326.66;5109755;28;20049;-70
2021/08/11 01:58:14;;;;;;;12.97;9.30;;;;;;;26.35;41.29;99334.91;5112995;28;20031;-74
2021/08/11 02:00:40;;;;;;;22.25;8.50;;;;;;;26.18;41.49;99336.94;5113659;27;20979;-70
2021/08/11 02:03:05;;;;;;;14.43;9.18;;;;;;;26.14;41.87;99334.16;5103456;28;20074;-70
2021/08/11 02:05:31;;;;;;;19.45;8.38;;;;;;;25.88;42.71;99339.66;5109317;28;20026;-74
2021/08/11 02:08:02;;;;;;;13.40;9.57;;;;;;;25.79;43.04;99330.84;5112966;28;20036;-74
2021/08/11 02:10:29;;;;;;;11.95;9.07;;;;;;;25.86;43.21;99333.56;5111008;27;20032;-70
2021/08/11 02:12:55;;;;;;;12.45;9.50;;;;;;;25.95;42.79;99335.03;5107689;28;20537;-75
2021/08/11 02:15:21;;;;;;;12.52;8.90;;;;;;;26.08;42.54;99336.75;5109826;28;20039;-70
2021/08/11 02:17:47;;;;;;;12.02;8.77;;;;;;;26.04;42.85;99338.88;5106488;28;20023;-70
2021/08/11 02:20:14;;;;;;;20.48;10.90;;;;;;;25.72;43.43;99342.50;5144890;27;20508;-71
2021/08/11 02:22:40;;;;;;;17.85;10.07;;;;;;;25.91;43.16;99343.69;5111968;27;20114;-70
2021/08/11 02:25:08;;;;;;;15.75;10.98;;;;;;;25.86;43.03;99336.44;5110682;28;20489;-71
2021/08/11 02:27:44;;;;;;;21.88;12.50;;;;;;;26.12;42.29;99325.19;5111928;28;20420;-70
2021/08/11 02:30:16;;;;;;;17.50;13.18;;;;;;;26.11;42.32;99323.59;5110325;27;20032;-70
2021/08/11 02:33:16;;;;;;;23.98;13.52;;;;;;;25.83;42.68;99319.31;5112022;28;20096;-70
2021/08/11 02:35:50;;;;;;;23.08;14.43;;;;;;;25.83;43.48;99317.28;5103711;28;20054;-70
2021/08/11 02:38:18;;;;;;;29.30;12.88;;;;;;;25.90;42.59;99316.31;5104182;27;20067;-70
2021/08/11 02:40:57;;;;;;;17.75;11.98;;;;;;;25.91;42.80;99320.78;5111513;27;20492;-69
2021/08/11 02:43:37;;;;;;;25.65;13.18;;;;;;;25.89;42.73;99324.09;5109571;27;20487;-70
2021/08/11 02:46:17;;;;;;;17.90;11.45;;;;;;;25.85;42.77;99320.50;5110039;28;20051;-70
2021/08/11 02:48:49;;;;;;;21.50;12.73;;;;;;;25.92;42.58;99323.19;5110432;27;20205;-74
2021/08/11 02:51:15;;;;;;;18.08;12.32;;;;;;;25.87;42.84;99314.31;5116017;27;20031;-74
2021/08/11 02:53:42;;;;;;;13.70;11.10;;;;;;;25.59;43.49;99313.72;5111074;28;20111;-70
2021/08/11 02:56:07;;;;;;;22.75;12.40;;;;;;;25.46;43.87;99320.09;5115099;27;20019;-70
2021/08/11 02:58:33;;;;;;;17.33;10.90;;;;;;;25.57;43.64;99319.09;5111893;27;20034;-69
2021/08/11 03:00:59;;;;;;;13.77;11.30;;;;;;;25.48;43.92;99329.03;5109969;27;20503;-70
2021/08/11 03:03:25;;;;;;;21.50;12.43;;;;;;;25.40;43.92;99321.03;5143867;27;20047;-70
2021/08/11 03:05:52;;;;;;;23.13;11.63;;;;;;;25.48;43.74;99328.25;5144174;27;20035;-71
2021/08/11 03:08:18;;;;;;;15.20;10.60;;;;;;;25.31;44.24;99331.03;5109901;28;20032;-70
2021/08/11 03:10:44;;;;;;;13.10;11.00;;;;;;;25.47;43.87;99332.34;5109691;27;20156;-74
2021/08/11 03:13:13;;;;;;;16.50;10.90;;;;;;;25.36;44.03;99335.44;5127004;27;20696;-74
2021/08/11 03:15:41;;;;;;;18.37;11.17;;;;;;;25.13;44.85;99342.81;5110955;27;20024;-74
2021/08/11 03:18:08;;;;;;;16.17;10.07;;;;;;;25.20;44.92;99342.69;5111166;28;20035;-70
2021/08/11 03:20:34;;;;;;;22.38;11.27;;;;;;;25.42;44.26;99344.31;5111013;28;20484;-74
2021/08/11 03:22:59;;;;;;;14.68;10.68;;;;;;;25.36;43.91;99338.28;5138102;27;20035;-74
2021/08/11 03:25:25;;;;;;;15.27;11.27;;;;;;;25.05;45.37;99347.88;5100502;28;20032;-74
2021/08/11 03:27:50;;;;;;;17.67;10.50;;;;;;;25.26;44.52;99345.03;5141990;27;20497;-74
2021/08/11 03:30:16;;;;;;;20.98;12.02;;;;;;;25.07;45.28;99351.09;5106256;28;20055;-74
2021/08/11 03:32:41;;;;;;;20.17;11.73;;;;;;;24.78;45.96;99354.50;5142653;27;20058;-74
2021/08/11 03:35:07;;;;;;;19.88;11.98;;;;;;;25.01;45.38;99349.19;5109763;27;20080;-71
2021/08/11 03:37:33;;;;;;;52.53;13.45;;;;;;;25.08;45.09;99355.56;5110566;28;20055;-70
2021/08/11 03:39:58;;;;;;;22.50;11.32;;;;;;;24.98;45.59;99353.75;5104491;28;20029;-74
2021/08/11 03:42:24;;;;;;;24.50;12.70;;;;;;;24.89;45.84;99362.09;5118925;27;20036;-70
2021/08/11 03:44:50;;;;;;;21.50;11.75;;;;;;;24.81;45.73;99364.28;5114563;27;20024;-74
2021/08/11 03:47:15;;;;;;;37.20;12.27;;;;;;;25.25;44.99;99367.13;5110966;28;20402;-70
2021/08/11 03:49:41;;;;;;;21.20;12.15;;;;;;;25.48;44.35;99368.31;5104057;28;20031;-72
2021/08/11 03:52:06;;;;;;;20.38;10.18;;;;;;;25.42;44.49;99370.06;5110838;28;20508;-73
2021/08/11 03:54:31;;;;;;;20.35;10.70;;;;;;;25.37;44.67;99368.53;5110706;28;20020;-73
2021/08/11 03:56:57;;;;;;;13.32;11.00;;;;;;;25.47;44.32;99366.72;5109106;28;20043;-73
2021/08/11 03:59:23;;;;;;;13.25;9.90;;;;;;;25.14;45.14;99375.13;5107060;28;20038;-72
2021/08/11 04:01:51;;;;;;;16.33;9.60;;;;;;;25.19;45.22;99369.69;5110389;28;20470;-74
2021/08/11 04:04:16;;;;;;;15.85;9.95;;;;;;;25.39;44.52;99374.59;5110601;28;20055;-74
2021/08/11 04:06:42;;;;;;;18.73;10.55;;;;;;;25.13;45.14;99379.22;5107794;28;20490;-73
2021/08/11 04:09:07;;;;;;;13.70;10.05;;;;;;;25.37;44.56;99383.66;5107146;28;20019;-73
2021/08/11 04:11:33;;;;;;;16.08;9.60;;;;;;;25.54;44.29;99385.81;5109779;28;20039;-73
2021/08/11 04:13:58;;;;;;;13.55;9.30;;;;;;;25.60;44.43;99378.31;5107334;28;20028;-73
2021/08/11 04:16:23;;;;;;;16.73;9.43;;;;;;;25.59;44.04;99386.13;5098698;28;20036;-73
2021/08/11 04:18:49;;;;;;;22.58;9.35;;;;;;;25.65;44.09;99390.06;5102985;28;20020;-74
2021/08/11 04:21:14;;;;;;;17.23;9.52;;;;;;;25.51;44.90;99371.13;5108765;28;20020;-73
2021/08/11 04:23:40;;;;;;;11.55;10.07;;;;;;;25.68;44.38;99374.06;5110538;28;20110;-73
2021/08/11 04:26:05;;;;;;;20.05;10.38;;;;;;;25.83;43.96;99376.59;5106664;28;20510;-71
2021/08/11 04:28:31;;;;;;;30.67;22.77;;;;;;;25.88;44.26;99379.75;5110412;28;20481;-74
2021/08/11 04:30:56;;;;;;;26.52;22.40;;;;;;;25.88;44.40;99382.63;5110279;28;20023;-73
2021/08/11 04:33:22;;;;;;;29.58;15.13;;;;;;;25.84;44.58;99378.22;5110833;28;20393;-74
2021/08/11 04:35:47;;;;;;;16.05;10.95;;;;;;;25.84;44.33;99384.78;5105434;28;20381;-73
2021/08/11 04:38:13;;;;;;;47.88;13.27;;;;;;;25.92;44.20;99385.41;5109361;28;20050;-72
2021/08/11 04:40:38;;;;;;;21.50;11.00;;;;;;;25.76;44.56;99386.16;5112947;28;20023;-70
2021/08/11 04:43:07;;;;;;;17.27;11.05;;;;;;;25.88;44.30;99385.50;5109846;28;20032;-72
2021/08/11 04:45:43;;;;;;;16.27;10.30;;;;;;;26.11;43.67;99380.06;5110381;28;20136;-73
2021/08/11 04:48:09;;;;;;;14.35;10.55;;;;;;;26.04;43.96;99378.19;5112839;28;20076;-72
2021/08/11 04:50:35;;;;;;;15.90;10.45;;;;;;;26.06;44.32;99378.53;5146956;27;20062;-74
2021/08/11 04:53:00;;;;;;;13.85;11.10;;;;;;;26.07;43.93;99385.91;5110394;28;20035;-72
2021/08/11 04:55:26;;;;;;;14.13;9.90;;;;;;;25.93;44.72;99376.34;5113929;28;20023;-72
2021/08/11 04:57:51;;;;;;;16.60;10.20;;;;;;;26.05;43.95;99382.66;5115999;27;20030;-74
2021/08/11 05:00:17;;;;;;;18.15;11.05;;;;;;;26.16;44.47;99376.69;5117414;27;20031;-74
2021/08/11 05:02:43;;;;;;;15.88;10.63;;;;;;;26.31;43.39;99372.25;5110379;27;20683;-79
2021/08/11 05:05:09;;;;;;;18.08;11.07;;;;;;;26.31;43.75;99371.47;5112560;28;20024;-73
2021/08/11 05:07:35;;;;;;;12.93;9.95;;;;;;;26.19;43.79;99370.09;5107595;28;20028;-73
2021/08/11 05:10:01;;;;;;;17.92;9.88;;;;;;;26.12;44.49;99371.03;5102801;28;20065;-73
2021/08/11 05:12:27;;;;;;;22.50;11.05;;;;;;;26.24;44.03;99381.03;5100341;28;20101;-73
2021/08/11 05:14:53;;;;;;;18.70;10.18;;;;;;;26.52;44.09;99386.53;5145408;27;20023;-73
2021/08/11 05:17:22;;;;;;;18.40;9.95;;;;;;;26.59;43.98;99384.28;5110779;28;20033;-74
2021/08/11 05:19:51;;;;;;;11.20;9.90;;;;;;;26.60;43.79;99377.28;5107840;28;20111;-74
2021/08/11 05:22:18;;;;;;;15.27;9.50;;;;;;;26.63;43.87;99392.78;5112502;28;20027;-73
2021/08/11 05:24:44;;;;;;;15.73;9.80;;;;;;;26.75;43.34;99383.47;5113348;28;20106;-76
2021/08/11 05:27:10;;;;;;;14.50;9.32;;;;;;;26.56;42.85;99385.19;5113678;28;20462;-74
2021/08/11 05:29:36;;;;;;;13.52;9.30;;;;;;;26.71;42.47;99382.75;5107170;28;20030;-73
2021/08/11 05:32:02;;;;;;;19.90;9.68;;;;;;;26.73;42.27;99382.31;5146470;27;20027;-74
2021/08/11 05:34:27;;;;;;;13.70;10.35;;;;;;;26.57;43.20;99383.91;5113229;28;20489;-74
2021/08/11 05:36:53;;;;;;;16.27;9.48;;;;;;;26.58;42.58;99385.53;5112958;28;20466;-74
2021/08/11 05:39:18;;;;;;;20.83;10.25;;;;;;;26.80;42.25;99389.94;5102145;28;20028;-73
2021/08/11 05:41:44;;;;;;;25.73;12.15;;;;;;;26.81;42.22;99392.34;5113244;28;20046;-75
2021/08/11 05:44:09;;;;;;;14.05;10.10;;;;;;;26.68;42.55;99392.28;5113056;28;20501;-74
2021/08/11 05:46:35;;;;;;;15.98;10.25;;;;;;;26.76;42.01;99399.41;5108025;28;20044;-73
2021/08/11 05:49:04;;;;;;;10.63;9.02;;;;;;;26.91;41.71;99396.25;5109885;28;20034;-72
2021/08/11 05:51:33;;;;;;;16.10;8.90;;;;;;;26.92;42.13;99397.84;5108548;28;20031;-75
2021/08/11 05:54:03;;;;;;;12.35;8.95;;;;;;;26.92;42.08;99397.84;5121084;27;20051;-76
2021/08/11 05:56:29;;;;;;;21.77;9.30;;;;;;;26.98;41.58;99396.03;5101880;28;20040;-73
2021/08/11 05:58:54;;;;;;;15.65;8.85;;;;;;;27.11;41.49;99383.81;5112638;28;20117;-74
2021/08/11 06:01:21;;;;;;;22.65;8.65;;;;;;;27.22;40.99;99387.19;5111107;28;20479;-73
2021/08/11 06:03:47;;;;;;;19.80;9.10;;;;;;;27.34;41.01;99388.53;5110464;28;20019;-75
2021/08/11 06:06:13;;;;;;;16.02;8.65;;;;;;;27.52;40.33;99384.31;5103799;28;20031;-74
2021/08/11 06:08:39;;;;;;;16.48;9.13;;;;;;;27.51;40.78;99374.91;5110442;28;20031;-73
2021/08/11 06:11:04;;;;;;;19.80;9.60;;;;;;;27.51;40.64;99374.09;5110462;28;20156;-72
2021/08/11 06:13:30;;;;;;;22.15;9.13;;;;;;;27.57;40.71;99372.28;5110098;28;20027;-73
2021/08/11 06:15:55;;;;;;;18.20;8.95;;;;;;;27.59;40.42;99390.69;5096685;28;20030;-72
2021/08/11 06:18:21;;;;;;;23.25;9.80;;;;;;;27.67;40.31;99384.75;5111036;28;20553;-72
2021/08/11 06:20:47;;;;;;;18.52;10.38;;;;;;;27.75;40.36;99386.94;5112214;27;20052;-74
2021/08/11 06:23:13;;;;;;;17.25;10.70;;;;;;;27.87;40.69;99385.38;5105456;28;20556;-73
2021/08/11 06:25:38;;;;;;;19.02;9.18;;;;;;;27.98;40.42;99384.22;5111668;28;20032;-72
2021/08/11 06:28:04;;;;;;;21.27;9.57;;;;;;;28.06;40.15;99387.72;5112531;28;20063;-73
2021/08/11 06:30:29;;;;;;;14.38;9.65;;;;;;;28.10;39.88;99389.19;5112451;28;20024;-75
2021/08/11 06:32:55;;;;;;;13.77;9.48;;;;;;;28.19;40.16;99387.72;5109436;28;20035;-71
2021/08/11 06:35:20;;;;;;;17.83;9.68;;;;;;;28.35;39.44;99396.22;5112135;28;20460;-73
2021/08/11 06:37:48;;;;;;;19.83;9.80;;;;;;;28.42;39.90;99390.25;5111796;28;20528;-73
2021/08/11 06:40:15;;;;;;;16.42;8.57;;;;;;;28.47;40.26;99394.63;5111998;28;20480;-73
2021/08/11 06:42:41;;;;;;;17.48;8.10;;;;;;;28.67;38.59;99391.50;5096786;28;20430;-74
2021/08/11 06:45:07;;;;;;;14.77;8.93;;;;;;;28.68;39.12;99383.69;5111910;28;20039;-73
2021/08/11 06:47:33;;;;;;;89.07;11.25;;;;;;;28.77;39.20;99385.84;5111907;28;20035;-73
2021/08/11 06:49:58;;;;;;;94.10;11.90;;;;;;;28.86;39.79;99389.66;5110511;28;20019;-73
2021/08/11 06:52:24;;;;;;;23.55;9.27;;;;;;;28.98;39.00;99376.50;5104920;28;20040;-74
2021/08/11 06:54:49;;;;;;;15.70;9.35;;;;;;;29.00;38.29;99382.59;5109091;28;20019;-70
2021/08/11 06:57:15;;;;;;;18.42;8.88;;;;;;;29.09;38.85;99379.00;5110586;28;20027;-71
2021/08/11 06:59:40;;;;;;;47.65;9.77;;;;;;;29.19;38.71;99381.97;5102428;28;20059;-71
2021/08/11 07:02:05;;;;;;;16.30;7.65;;;;;;;29.27;38.06;99384.09;5100360;28;20110;-72
2021/08/11 07:04:31;;;;;;;17.38;7.80;;;;;;;29.40;37.78;99386.13;5111624;28;20061;-75
2021/08/11 07:06:56;;;;;;;11.13;7.55;;;;;;;29.48;37.22;99387.50;5111489;28;20023;-74
2021/08/11 07:09:24;;;;;;;15.30;7.68;;;;;;;29.60;37.55;99377.19;5102607;28;20027;-74
2021/08/11 07:11:49;;;;;;;9.50;7.95;;;;;;;29.65;37.66;99378.66;5106410;28;20102;-75
2021/08/11 07:14:15;;;;;;;15.05;7.68;;;;;;;29.68;36.73;99377.72;5110784;28;20482;-76
2021/08/11 07:16:41;;;;;;;32.80;9.75;;;;;;;29.78;36.82;99373.63;5108450;28;20118;-70
2021/08/11 07:19:06;;;;;;;15.18;7.97;;;;;;;29.92;36.80;99371.44;5103127;28;20031;-72
2021/08/11 07:21:32;;;;;;;12.20;8.20;;;;;;;30.03;36.69;99365.28;5107919;28;20051;-72
2021/08/11 07:23:57;;;;;;;12.55;8.07;;;;;;;30.12;36.37;99377.69;5107730;28;20035;-74
2021/08/11 07:26:23;;;;;;;11.90;7.05;;;;;;;30.29;36.57;99371.69;5108150;28;20035;-73
2021/08/11 07:28:48;;;;;;;17.02;7.38;;;;;;;30.43;34.41;99367.38;5102071;28;20020;-71
2021/08/11 07:31:13;;;;;;;14.85;8.43;;;;;;;30.55;34.37;99368.56;5108722;28;20032;-71
2021/08/11 07:33:39;;;;;;;12.77;7.50;;;;;;;30.60;34.66;99365.03;5110045;28;20888;-70
2021/08/11 07:36:05;;;;;;;16.10;8.35;;;;;;;30.70;34.83;99365.09;5107868;28;20028;-70
2021/08/11 07:38:30;;;;;;;11.45;6.90;;;;;;;30.76;34.89;99357.38;5101806;28;20059;-70
2021/08/11 07:40:56;;;;;;;11.45;7.10;;;;;;;30.85;34.71;99353.75;5110729;28;20485;-71
2021/08/11 07:43:22;;;;;;;29.33;9.77;;;;;;;30.92;35.23;99348.44;5111128;28;20047;-69
2021/08/11 07:45:48;;;;;;;13.38;8.25;;;;;;;30.93;34.57;99344.28;5105007;28;20020;-75
2021/08/11 07:48:14;;;;;;;11.00;7.97;;;;;;;30.96;34.78;99346.19;5143719;27;20035;-74
2021/08/11 07:50:39;;;;;;;11.95;7.53;;;;;;;31.01;34.68;99353.44;5109306;28;20035;-77
2021/08/11 07:53:05;;;;;;;12.23;8.40;;;;;;;31.09;33.66;99346.06;5111423;28;20028;-74
2021/08/11 07:55:31;;;;;;;19.08;8.40;;;;;;;31.17;34.25;99343.66;5097632;28;20494;-77
2021/08/11 07:57:56;;;;;;;20.70;8.25;;;;;;;31.37;33.07;99351.03;5110106;28;20172;-75
2021/08/11 08:00:22;;;;;;;20.20;7.78;;;;;;;31.45;32.32;99345.75;5110872;28;20473;-73
2021/08/11 08:02:49;;;;;;;15.55;8.40;;;;;;;31.46;33.90;99341.56;5109457;28;20042;-76
2021/08/11 08:05:15;;;;;;;12.23;7.15;;;;;;;31.48;34.09;99341.88;5105216;28;20027;-76
2021/08/11 08:07:40;;;;;;;27.88;8.27;;;;;;;31.50;33.85;99343.03;5116706;28;20088;-75
2021/08/11 08:10:07;;;;;;;19.95;8.27;;;;;;;31.71;32.33;99333.81;5110662;28;20416;-74
2021/08/11 08:12:32;;;;;;;17.88;8.35;;;;;;;31.76;32.05;99331.06;5136931;27;20040;-75
2021/08/11 08:14:58;;;;;;;13.25;7.00;;;;;;;31.86;31.72;99333.97;5120311;27;20031;-74
2021/08/11 08:17:23;;;;;;;10.65;7.65;;;;;;;31.98;30.96;99335.84;5108446;28;20035;-73
2021/08/11 08:19:49;;;;;;;15.60;7.80;;;;;;;32.03;32.00;99335.19;5111956;27;20031;-75
2021/08/11 08:22:16;;;;;;;11.32;6.80;;;;;;;32.00;30.95;99324.59;5107173;28;20106;-76
2021/08/11 08:24:42;;;;;;;19.30;7.35;;;;;;;31.93;31.48;99316.25;5110116;28;20405;-76
2021/08/11 08:27:08;;;;;;;9.35;6.40;;;;;;;31.97;30.55;99322.66;5113091;28;20046;-80
2021/08/11 08:29:33;;;;;;;16.60;6.72;;;;;;;32.10;31.08;99312.97;5114372;28;20528;-76
2021/08/11 08:31:59;;;;;;;13.95;8.15;;;;;;;32.04;31.08;99319.44;5107772;27;20465;-75
2021/08/11 08:34:25;;;;;;;16.83;7.03;;;;;;;31.89;30.52;99313.53;5115369;27;20028;-72
2021/08/11 08:36:50;;;;;;;15.68;7.50;;;;;;;31.98;31.11;99318.50;5114356;28;20032;-76
2021/08/11 08:39:16;;;;;;;16.20;7.07;;;;;;;32.10;30.98;99312.97;5113225;28;20092;-75
2021/08/11 08:41:44;;;;;;;8.43;6.88;;;;;;;32.16;30.44;99311.84;5108725;28;20047;-74
2021/08/11 08:44:12;;;;;;;9.82;7.07;;;;;;;32.15;30.65;99310.22;5120609;27;20024;-74
2021/08/11 08:46:39;;;;;;;13.80;7.72;;;;;;;32.36;30.66;99304.69;5113495;28;20110;-75
2021/08/11 08:49:06;;;;;;;15.50;6.65;;;;;;;32.41;30.26;99289.56;5109083;28;20154;-76
2021/08/11 08:51:38;;;;;;;8.65;6.47;;;;;;;32.44;30.68;99287.75;5112430;28;20070;-78
2021/08/11 08:54:05;;;;;;;12.98;6.60;;;;;;;32.53;30.65;99286.91;5114072;28;20039;-77
2021/08/11 08:56:31;;;;;;;9.25;6.22;;;;;;;32.54;31.33;99285.63;5113789;28;20111;-73
2021/08/11 08:58:57;;;;;;;13.88;7.30;;;;;;;32.48;31.11;99288.38;5100370;28;20482;-74
2021/08/11 09:01:22;;;;;;;15.00;7.60;;;;;;;32.59;31.11;99279.16;5110358;28;20489;-71
2021/08/11 09:03:48;;;;;;;11.05;7.40;;;;;;;32.69;31.56;99288.56;5101927;28;20047;-71
2021/08/11 09:06:13;;;;;;;10.77;7.38;;;;;;;32.83;31.63;99284.09;5108961;27;20407;-72
2021/08/11 09:09:01;;;;;;;12.38;7.22;;;;;;;32.81;30.37;99281.69;5102157;27;20504;-71
2021/08/11 09:11:27;;;;;;;8.70;7.13;;;;;;;32.83;29.79;99276.25;5110137;28;20043;-71
2021/08/11 09:14:14;;;;;;;11.57;6.97;;;;;;;33.06;29.40;99273.78;5113543;28;20499;-72
2021/08/11 09:16:52;;;;;;;10.70;6.55;;;;;;;33.07;29.03;99266.72;5107721;28;20042;-72
2021/08/11 09:19:19;;;;;;;6.53;5.65;;;;;;;33.09;28.88;99269.13;5113139;28;20023;-73
2021/08/11 09:22:06;;;;;;;12.38;6.68;;;;;;;33.16;29.01;99280.31;5113369;28;20032;-72
2021/08/11 09:24:35;;;;;;;12.55;6.97;;;;;;;33.39;29.07;99261.25;5113866;27;20535;-72
2021/08/11 09:27:24;;;;;;;10.23;6.55;;;;;;;33.36;29.59;99265.16;5109304;28;20027;-73
2021/08/11 09:30:08;;;;;;;7.50;6.15;;;;;;;33.24;28.83;99257.56;5104975;27;20040;-73
2021/08/11 09:32:55;;;;;;;11.90;7.90;;;;;;;33.25;28.18;99259.16;5108631;28;20043;-75
2021/08/11 09:35:31;;;;;;;11.23;6.63;;;;;;;33.38;28.69;99245.16;5104367;28;20023;-73
2021/08/11 09:38:17;;;;;;;13.68;7.30;;;;;;;33.60;27.63;99244.75;5112954;28;20121;-74
2021/08/11 09:40:44;;;;;;;9.30;6.20;;;;;;;33.92;26.11;99241.34;5103681;28;20078;-73
2021/08/11 09:43:15;;;;;;;7.35;5.93;;;;;;;33.90;26.51;99249.72;5111631;28;20023;-73
2021/08/11 09:45:52;;;;;;;7.88;5.88;;;;;;;34.05;26.02;99251.84;5104810;28;20034;-73
2021/08/11 09:48:22;;;;;;;10.27;5.90;;;;;;;34.15;25.17;99251.19;5143419;27;20032;-73
2021/08/11 09:50:48;;;;;;;;;;;;;;;34.02;25.41;99242.81;5128923;27;20115;-74
2021/08/11 09:53:17;;;;;;;13.43;5.78;;;;;;;33.88;26.39;99240.72;5112849;28;19931;-73
2021/08/11 09:56:04;;;;;;;8.50;5.78;;;;;;;34.08;26.56;99242.13;5112624;28;20030;-73
2021/08/11 09:58:43;;;;;;;9.68;5.70;;;;;;;34.29;25.80;99234.22;5112296;28;20084;-73
2021/08/11 10:01:12;;;;;;;9.60;5.50;;;;;;;34.34;25.18;99232.72;5111770;28;20051;-73
2021/08/11 10:04:02;;;;;;;14.20;6.28;;;;;;;34.32;26.06;99226.63;5110730;28;20023;-73
2021/08/11 10:06:34;;;;;;;10.60;6.35;;;;;;;34.47;26.09;99224.44;5112354;28;20036;-73
2021/08/11 10:09:25;;;;;;;12.50;6.47;;;;;;;34.52;25.42;99217.97;5112088;28;20024;-73
2021/08/11 10:11:55;;;;;;;9.48;5.60;;;;;;;34.58;26.18;99215.91;5112336;28;20463;-73
2021/08/11 10:14:26;;;;;;;7.88;6.18;;;;;;;34.80;24.73;99213.78;5105933;28;20035;-73
2021/08/11 10:16:52;;;;;;;8.52;5.60;;;;;;;34.95;23.19;99213.69;5104392;28;20543;-73
2021/08/11 10:19:22;;;;;;;6.38;5.53;;;;;;;35.09;22.73;99209.88;5108571;27;20535;-73
2021/08/11 10:22:00;;;;;;;7.22;5.60;;;;;;;34.89;23.25;99216.50;5112299;28;20485;-73
2021/08/11 10:24:26;;;;;;;7.55;5.22;;;;;;;34.89;22.56;99210.72;5099152;28;20046;-73
2021/08/11 10:26:53;;;;;;;6.22;5.30;;;;;;;35.03;22.27;99214.00;5137629;27;20178;-73
2021/08/11 10:29:19;;;;;;;5.78;5.18;;;;;;;35.17;21.50;99206.53;5110439;28;20602;-73
2021/08/11 10:31:45;;;;;;;6.15;4.90;;;;;;;35.07;21.77;99209.59;5112196;28;20042;-74
2021/08/11 10:34:13;;;;;;;12.05;6.20;;;;;;;35.11;21.95;99191.94;5111054;28;20028;-74
2021/08/11 10:36:42;;;;;;;13.65;6.20;;;;;;;35.11;22.90;99198.53;5110989;28;20028;-74
2021/08/11 10:39:07;;;;;;;12.02;5.43;;;;;;;35.26;22.70;99195.53;5111817;28;20122;-74
2021/08/11 10:41:35;;;;;;;7.97;5.05;;;;;;;35.30;22.10;99192.38;5111660;28;20537;-73
2021/08/11 10:44:02;;;;;;;7.32;5.00;;;;;;;35.31;22.91;99187.38;5111098;28;20052;-73
2021/08/11 10:46:44;;;;;;;8.40;4.82;;;;;;;35.48;20.27;99184.59;5144305;27;20464;-74
2021/08/11 10:49:16;;;;;;;7.75;4.90;;;;;;;35.55;21.07;99179.16;5138534;27;20504;-74
2021/08/11 10:51:44;;;;;;;5.72;5.22;;;;;;;35.62;21.64;99177.88;5111381;28;20112;-71
2021/08/11 10:54:10;;;;;;;11.05;5.43;;;;;;;35.57;21.41;99172.81;5142721;27;20424;-74
2021/08/11 10:56:48;;;;;;;7.43;5.25;;;;;;;35.31;22.78;99179.44;5109742;28;20036;-74
2021/08/11 10:59:22;;;;;;;8.15;6.05;;;;;;;35.21;22.74;99173.03;5114474;27;20024;-73
2021/08/11 11:01:49;;;;;;;12.70;5.35;;;;;;;35.10;22.64;99167.91;5111444;28;20035;-74
2021/08/11 11:04:43;;;;;;;11.25;5.25;;;;;;;35.10;21.98;99153.38;5109104;28;20390;-74
2021/08/11 11:07:09;;;;;;;9.20;6.03;;;;;;;35.02;22.71;99146.41;5109526;28;20093;-73
2021/08/11 11:09:35;;;;;;;10.07;5.47;;;;;;;35.04;22.59;99143.81;5108648;28;20031;-72
2021/08/11 11:12:15;;;;;;;23.50;6.20;;;;;;;34.90;21.44;99141.81;5110076;28;20034;-71
2021/08/11 11:14:57;;;;;;;9.65;5.30;;;;;;;34.99;21.04;99133.72;5098106;28;20046;-71
2021/08/11 11:17:30;;;;;;;8.75;5.88;;;;;;;35.01;20.70;99130.31;5122814;27;20027;-71
2021/08/11 11:20:07;;;;;;;7.75;5.32;;;;;;;35.04;21.16;99131.41;5109783;28;20077;-71
2021/08/11 11:22:50;;;;;;;7.18;5.20;;;;;;;35.10;21.49;99133.03;5109193;28;20063;-70
2021/08/11 11:25:18;;;;;;;24.48;6.13;;;;;;;35.31;20.17;99123.44;5110777;28;20030;-72
2021/08/11 11:27:56;;;;;;;6.10;5.22;;;;;;;35.47;20.91;99116.16;5109669;28;20065;-72
2021/08/11 11:30:27;;;;;;;10.10;4.78;;;;;;;35.62;21.32;99113.09;5109671;28;20058;-73